sensor_id;sensor_type;location;lat;lon;timestamp;temperature;humidity
21267;DHT22;10791;53.108;18.326;2023-03-31T00:03:49;10.10;99.90
21267;DHT22;10791;53.108;18.326;2023-03-31T00:08:53;10.10;99.90
21267;DHT22;10791;53.108;18.326;2023-03-31T00:13:56;10.00;99.90
21267;DHT22;10791;53.108;18.326;2023-03-31T00:18:59;10.00;99.90
21267;DHT22;10791;53.108;18.326;2023-03-31T00:24:05;9.90;99.90
21267;DHT22;10791;53.108;18.326;2023-03-31T00:29:11;9.80;99.90
21267;DHT22;10791;53.108;18.326;2023-03-31T00:34:14;9.80;99.90
21267;DHT22;10791;53.108;18.326;2023-03-31T00:39:18;9.80;99.90
21267;DHT22;10791;53.108;18.326;2023-03-31T00:44:23;9.70;99.90
21267;DHT22;10791;53.108;18.326;2023-03-31T00:49:37;9.80;99.90
21267;DHT22;10791;53.108;18.326;2023-03-31T00:54:45;9.80;99.90
21267;DHT22;10791;53.108;18.326;2023-03-31T00:59:52;9.80;99.90
21267;DHT22;10791;53.108;18.326;2023-03-31T01:04:59;9.80;99.90
21267;DHT22;10791;53.108;18.326;2023-03-31T01:10:05;9.90;99.90
21267;DHT22;10791;53.108;18.326;2023-03-31T01:15:09;9.80;99.90
21267;DHT22;10791;53.108;18.326;2023-03-31T01:21:23;9.80;99.90
21267;DHT22;10791;53.108;18.326;2023-03-31T01:32:20;9.90;99.90
21267;DHT22;10791;53.108;18.326;2023-03-31T01:42:56;9.90;99.90
21267;DHT22;10791;53.108;18.326;2023-03-31T01:48:09;9.90;99.90
21267;DHT22;10791;53.108;18.326;2023-03-31T01:53:32;9.90;99.90
21267;DHT22;10791;53.108;18.326;2023-03-31T01:58:53;9.90;99.90
21267;DHT22;10791;53.108;18.326;2023-03-31T02:04:04;9.80;99.90
21267;DHT22;10791;53.108;18.326;2023-03-31T02:09:13;9.80;99.90
21267;DHT22;10791;53.108;18.326;2023-03-31T02:14:22;9.80;99.90
21267;DHT22;10791;53.108;18.326;2023-03-31T02:19:34;9.80;99.90
21267;DHT22;10791;53.108;18.326;2023-03-31T02:24:40;9.70;99.90
21267;DHT22;10791;53.108;18.326;2023-03-31T02:29:44;9.70;99.90
21267;DHT22;10791;53.108;18.326;2023-03-31T02:34:48;9.60;99.90
21267;DHT22;10791;53.108;18.326;2023-03-31T02:39:52;9.50;99.90
21267;DHT22;10791;53.108;18.326;2023-03-31T02:45:02;9.40;99.90
21267;DHT22;10791;53.108;18.326;2023-03-31T02:50:07;9.40;99.90
21267;DHT22;10791;53.108;18.326;2023-03-31T03:05:58;9.10;99.90
21267;DHT22;10791;53.108;18.326;2023-03-31T03:11:18;9.10;99.90
21267;DHT22;10791;53.108;18.326;2023-03-31T03:21:34;9.00;99.90
21267;DHT22;10791;53.108;18.326;2023-03-31T03:26:38;8.90;99.90
21267;DHT22;10791;53.108;18.326;2023-03-31T03:31:42;8.90;99.90
21267;DHT22;10791;53.108;18.326;2023-03-31T03:36:46;8.80;99.90
21267;DHT22;10791;53.108;18.326;2023-03-31T03:41:49;8.80;99.90
21267;DHT22;10791;53.108;18.326;2023-03-31T03:46:53;8.70;99.90
21267;DHT22;10791;53.108;18.326;2023-03-31T03:51:56;8.60;99.90
21267;DHT22;10791;53.108;18.326;2023-03-31T03:56:59;8.70;99.90
21267;DHT22;10791;53.108;18.326;2023-03-31T04:02:03;8.70;99.90
21267;DHT22;10791;53.108;18.326;2023-03-31T04:07:06;8.70;99.90
21267;DHT22;10791;53.108;18.326;2023-03-31T04:12:10;8.70;99.90
21267;DHT22;10791;53.108;18.326;2023-03-31T04:17:13;8.70;99.90
21267;DHT22;10791;53.108;18.326;2023-03-31T04:22:17;8.70;99.90
21267;DHT22;10791;53.108;18.326;2023-03-31T04:27:23;8.80;99.90
21267;DHT22;10791;53.108;18.326;2023-03-31T04:32:29;8.80;99.90
21267;DHT22;10791;53.108;18.326;2023-03-31T04:37:34;8.70;99.90
21267;DHT22;10791;53.108;18.326;2023-03-31T04:42:41;8.80;99.90
21267;DHT22;10791;53.108;18.326;2023-03-31T04:47:44;8.80;99.90
21267;DHT22;10791;53.108;18.326;2023-03-31T04:52:48;8.80;99.90
21267;DHT22;10791;53.108;18.326;2023-03-31T04:57:51;8.80;99.90
21267;DHT22;10791;53.108;18.326;2023-03-31T05:02:54;8.90;99.90
21267;DHT22;10791;53.108;18.326;2023-03-31T05:07:59;8.90;99.90
21267;DHT22;10791;53.108;18.326;2023-03-31T05:13:02;8.90;99.90
21267;DHT22;10791;53.108;18.326;2023-03-31T05:18:06;9.00;99.90
21267;DHT22;10791;53.108;18.326;2023-03-31T05:23:10;9.00;99.90
21267;DHT22;10791;53.108;18.326;2023-03-31T05:28:13;9.20;99.90
21267;DHT22;10791;53.108;18.326;2023-03-31T05:33:17;9.20;99.90
21267;DHT22;10791;53.108;18.326;2023-03-31T05:38:21;9.30;99.90
21267;DHT22;10791;53.108;18.326;2023-03-31T05:43:24;9.30;99.90
21267;DHT22;10791;53.108;18.326;2023-03-31T05:48:28;9.40;99.90
21267;DHT22;10791;53.108;18.326;2023-03-31T05:53:31;9.40;99.90
21267;DHT22;10791;53.108;18.326;2023-03-31T05:58:37;9.50;99.90
21267;DHT22;10791;53.108;18.326;2023-03-31T06:03:40;9.50;99.90
21267;DHT22;10791;53.108;18.326;2023-03-31T06:08:45;9.60;99.90
21267;DHT22;10791;53.108;18.326;2023-03-31T06:13:49;9.80;99.90
21267;DHT22;10791;53.108;18.326;2023-03-31T06:18:52;9.90;99.90
21267;DHT22;10791;53.108;18.326;2023-03-31T06:23:57;10.10;99.90
21267;DHT22;10791;53.108;18.326;2023-03-31T06:29:02;10.20;99.90
21267;DHT22;10791;53.108;18.326;2023-03-31T06:34:05;10.30;99.90
21267;DHT22;10791;53.108;18.326;2023-03-31T06:39:09;10.30;99.90
21267;DHT22;10791;53.108;18.326;2023-03-31T06:44:13;10.40;99.90
21267;DHT22;10791;53.108;18.326;2023-03-31T06:49:18;10.50;99.90
21267;DHT22;10791;53.108;18.326;2023-03-31T06:54:21;10.50;99.90
21267;DHT22;10791;53.108;18.326;2023-03-31T06:59:25;10.60;99.90
21267;DHT22;10791;53.108;18.326;2023-03-31T07:04:29;10.70;99.90
21267;DHT22;10791;53.108;18.326;2023-03-31T07:09:32;10.80;99.90
21267;DHT22;10791;53.108;18.326;2023-03-31T07:14:36;10.90;99.90
21267;DHT22;10791;53.108;18.326;2023-03-31T07:19:39;11.00;99.90
21267;DHT22;10791;53.108;18.326;2023-03-31T07:24:43;11.20;99.90
21267;DHT22;10791;53.108;18.326;2023-03-31T07:29:47;11.30;99.90
21267;DHT22;10791;53.108;18.326;2023-03-31T07:34:50;11.40;99.90
21267;DHT22;10791;53.108;18.326;2023-03-31T07:39:53;11.50;99.90
21267;DHT22;10791;53.108;18.326;2023-03-31T07:44:56;11.60;99.90
21267;DHT22;10791;53.108;18.326;2023-03-31T07:50:00;11.70;99.90
21267;DHT22;10791;53.108;18.326;2023-03-31T07:55:04;11.80;99.90
21267;DHT22;10791;53.108;18.326;2023-03-31T08:00:09;11.80;99.90
21267;DHT22;10791;53.108;18.326;2023-03-31T08:05:16;11.90;99.90
21267;DHT22;10791;53.108;18.326;2023-03-31T08:10:23;12.10;99.90
21267;DHT22;10791;53.108;18.326;2023-03-31T08:15:27;12.40;99.90
21267;DHT22;10791;53.108;18.326;2023-03-31T08:20:31;12.50;99.90
21267;DHT22;10791;53.108;18.326;2023-03-31T08:25:34;12.60;99.90
21267;DHT22;10791;53.108;18.326;2023-03-31T08:30:38;12.50;99.90
21267;DHT22;10791;53.108;18.326;2023-03-31T08:35:42;12.60;99.90
21267;DHT22;10791;53.108;18.326;2023-03-31T08:40:45;12.90;99.90
21267;DHT22;10791;53.108;18.326;2023-03-31T08:45:53;13.20;99.90
21267;DHT22;10791;53.108;18.326;2023-03-31T08:51:08;13.50;99.90
21267;DHT22;10791;53.108;18.326;2023-03-31T08:56:16;13.70;99.90
21267;DHT22;10791;53.108;18.326;2023-03-31T09:23:37;14.00;99.90
21267;DHT22;10791;53.108;18.326;2023-03-31T09:28:42;14.00;99.90
21267;DHT22;10791;53.108;18.326;2023-03-31T09:33:46;14.10;99.90
21267;DHT22;10791;53.108;18.326;2023-03-31T09:38:50;14.40;99.90
21267;DHT22;10791;53.108;18.326;2023-03-31T09:43:53;14.60;99.90
21267;DHT22;10791;53.108;18.326;2023-03-31T09:49:08;14.90;99.90
21267;DHT22;10791;53.108;18.326;2023-03-31T09:54:22;15.00;99.90
21267;DHT22;10791;53.108;18.326;2023-03-31T09:59:36;15.10;99.90
21267;DHT22;10791;53.108;18.326;2023-03-31T10:04:44;15.30;99.90
21267;DHT22;10791;53.108;18.326;2023-03-31T10:09:48;15.40;99.90
21267;DHT22;10791;53.108;18.326;2023-03-31T10:14:53;15.60;99.90
21267;DHT22;10791;53.108;18.326;2023-03-31T10:20:59;15.70;99.90
21267;DHT22;10791;53.108;18.326;2023-03-31T10:25:45;15.60;99.90
21267;DHT22;10791;53.108;18.326;2023-03-31T10:30:51;15.40;99.90
21267;DHT22;10791;53.108;18.326;2023-03-31T10:35:58;15.20;99.90
21267;DHT22;10791;53.108;18.326;2023-03-31T10:41:03;15.00;99.90
21267;DHT22;10791;53.108;18.326;2023-03-31T10:46:12;15.00;99.90
21267;DHT22;10791;53.108;18.326;2023-03-31T10:51:17;15.10;99.90
21267;DHT22;10791;53.108;18.326;2023-03-31T10:56:42;15.30;99.90
21267;DHT22;10791;53.108;18.326;2023-03-31T11:12:54;15.30;99.90
21267;DHT22;10791;53.108;18.326;2023-03-31T11:18:12;15.40;99.90
21267;DHT22;10791;53.108;18.326;2023-03-31T11:23:22;15.40;99.90
21267;DHT22;10791;53.108;18.326;2023-03-31T11:28:52;15.50;99.90
21267;DHT22;10791;53.108;18.326;2023-03-31T11:34:19;15.60;99.90
21267;DHT22;10791;53.108;18.326;2023-03-31T11:39:34;15.70;99.90
21267;DHT22;10791;53.108;18.326;2023-03-31T11:44:43;15.90;99.90
21267;DHT22;10791;53.108;18.326;2023-03-31T11:49:56;15.90;99.90
21267;DHT22;10791;53.108;18.326;2023-03-31T11:55:16;16.00;99.90
21267;DHT22;10791;53.108;18.326;2023-03-31T12:00:24;16.20;99.90
21267;DHT22;10791;53.108;18.326;2023-03-31T12:05:32;16.50;99.90
21267;DHT22;10791;53.108;18.326;2023-03-31T12:10:40;16.80;99.90
21267;DHT22;10791;53.108;18.326;2023-03-31T12:21:13;16.80;99.90
21267;DHT22;10791;53.108;18.326;2023-03-31T12:26:38;16.70;99.90
21267;DHT22;10791;53.108;18.326;2023-03-31T12:31:44;17.00;99.90
21267;DHT22;10791;53.108;18.326;2023-03-31T12:37:08;17.00;99.90
21267;DHT22;10791;53.108;18.326;2023-03-31T13:08:54;16.40;99.90
21267;DHT22;10791;53.108;18.326;2023-03-31T13:14:03;16.30;99.90
21267;DHT22;10791;53.108;18.326;2023-03-31T13:19:10;16.10;99.90
21267;DHT22;10791;53.108;18.326;2023-03-31T13:24:15;16.00;99.90
21267;DHT22;10791;53.108;18.326;2023-03-31T13:29:23;15.90;99.90
21267;DHT22;10791;53.108;18.326;2023-03-31T13:34:42;15.90;99.90
21267;DHT22;10791;53.108;18.326;2023-03-31T13:51:10;15.80;99.90
21267;DHT22;10791;53.108;18.326;2023-03-31T14:07:01;16.30;99.90
21267;DHT22;10791;53.108;18.326;2023-03-31T14:12:33;16.60;99.90
21267;DHT22;10791;53.108;18.326;2023-03-31T14:17:38;16.80;99.90
21267;DHT22;10791;53.108;18.326;2023-03-31T14:23:11;17.20;99.90
21267;DHT22;10791;53.108;18.326;2023-03-31T14:33:42;16.60;99.90
21267;DHT22;10791;53.108;18.326;2023-03-31T14:38:48;16.20;99.90
21267;DHT22;10791;53.108;18.326;2023-03-31T14:43:52;15.70;99.90
21267;DHT22;10791;53.108;18.326;2023-03-31T14:48:55;15.50;99.90
21267;DHT22;10791;53.108;18.326;2023-03-31T14:54:00;15.40;99.90
21267;DHT22;10791;53.108;18.326;2023-03-31T14:59:06;15.30;99.90
21267;DHT22;10791;53.108;18.326;2023-03-31T15:04:12;15.10;99.90
21267;DHT22;10791;53.108;18.326;2023-03-31T15:09:22;14.90;99.90
21267;DHT22;10791;53.108;18.326;2023-03-31T15:14:30;14.70;99.90
21267;DHT22;10791;53.108;18.326;2023-03-31T15:19:36;14.50;99.90
21267;DHT22;10791;53.108;18.326;2023-03-31T15:24:39;14.40;99.90
21267;DHT22;10791;53.108;18.326;2023-03-31T15:29:46;14.40;99.90
21267;DHT22;10791;53.108;18.326;2023-03-31T15:34:50;14.40;99.90
21267;DHT22;10791;53.108;18.326;2023-03-31T15:39:58;14.20;99.90
21267;DHT22;10791;53.108;18.326;2023-03-31T15:50:29;13.80;99.90
21267;DHT22;10791;53.108;18.326;2023-03-31T15:55:41;13.80;99.90
21267;DHT22;10791;53.108;18.326;2023-03-31T16:00:50;13.70;99.90
21267;DHT22;10791;53.108;18.326;2023-03-31T16:06:00;13.70;99.90
21267;DHT22;10791;53.108;18.326;2023-03-31T16:11:21;13.60;99.90
21267;DHT22;10791;53.108;18.326;2023-03-31T16:16:26;13.50;99.90
21267;DHT22;10791;53.108;18.326;2023-03-31T16:21:43;13.50;99.90
21267;DHT22;10791;53.108;18.326;2023-03-31T16:26:49;13.60;99.90
21267;DHT22;10791;53.108;18.326;2023-03-31T16:32:10;13.60;99.90
21267;DHT22;10791;53.108;18.326;2023-03-31T16:37:14;13.70;99.90
21267;DHT22;10791;53.108;18.326;2023-03-31T16:42:19;13.70;99.90
21267;DHT22;10791;53.108;18.326;2023-03-31T16:47:22;13.70;99.90
21267;DHT22;10791;53.108;18.326;2023-03-31T16:52:38;13.70;99.90
21267;DHT22;10791;53.108;18.326;2023-03-31T16:57:42;13.70;99.90
21267;DHT22;10791;53.108;18.326;2023-03-31T17:02:46;13.60;99.90
21267;DHT22;10791;53.108;18.326;2023-03-31T17:07:50;13.50;99.90
21267;DHT22;10791;53.108;18.326;2023-03-31T17:12:53;13.40;99.90
21267;DHT22;10791;53.108;18.326;2023-03-31T17:18:01;13.30;99.90
21267;DHT22;10791;53.108;18.326;2023-03-31T17:23:06;13.10;99.90
21267;DHT22;10791;53.108;18.326;2023-03-31T17:28:11;13.10;99.90
21267;DHT22;10791;53.108;18.326;2023-03-31T17:33:21;13.00;99.90
21267;DHT22;10791;53.108;18.326;2023-03-31T17:38:27;13.00;99.90
21267;DHT22;10791;53.108;18.326;2023-03-31T17:43:34;13.00;99.90
21267;DHT22;10791;53.108;18.326;2023-03-31T17:48:43;13.00;99.90
21267;DHT22;10791;53.108;18.326;2023-03-31T17:53:47;12.90;99.90
21267;DHT22;10791;53.108;18.326;2023-03-31T17:58:52;12.70;99.90
21267;DHT22;10791;53.108;18.326;2023-03-31T18:03:56;12.60;99.90
21267;DHT22;10791;53.108;18.326;2023-03-31T18:09:00;12.50;99.90
21267;DHT22;10791;53.108;18.326;2023-03-31T18:14:06;12.40;99.90
21267;DHT22;10791;53.108;18.326;2023-03-31T18:19:11;12.30;99.90
21267;DHT22;10791;53.108;18.326;2023-03-31T18:24:16;12.30;99.90
21267;DHT22;10791;53.108;18.326;2023-03-31T18:29:22;12.20;99.90
21267;DHT22;10791;53.108;18.326;2023-03-31T18:34:26;12.10;99.90
21267;DHT22;10791;53.108;18.326;2023-03-31T18:39:33;12.10;99.90
21267;DHT22;10791;53.108;18.326;2023-03-31T18:44:38;12.00;99.90
21267;DHT22;10791;53.108;18.326;2023-03-31T18:49:46;11.80;99.90
21267;DHT22;10791;53.108;18.326;2023-03-31T18:54:51;11.80;99.90
21267;DHT22;10791;53.108;18.326;2023-03-31T18:59:57;11.70;99.90
21267;DHT22;10791;53.108;18.326;2023-03-31T19:05:02;11.60;99.90
21267;DHT22;10791;53.108;18.326;2023-03-31T19:10:08;11.60;99.90
21267;DHT22;10791;53.108;18.326;2023-03-31T19:15:14;11.60;99.90
21267;DHT22;10791;53.108;18.326;2023-03-31T19:20:20;11.60;99.90
21267;DHT22;10791;53.108;18.326;2023-03-31T19:25:25;11.60;99.90
21267;DHT22;10791;53.108;18.326;2023-03-31T19:30:31;11.60;99.90
21267;DHT22;10791;53.108;18.326;2023-03-31T19:35:40;11.50;99.90
21267;DHT22;10791;53.108;18.326;2023-03-31T19:40:47;11.50;99.90
21267;DHT22;10791;53.108;18.326;2023-03-31T19:45:52;11.50;99.90
21267;DHT22;10791;53.108;18.326;2023-03-31T19:51:00;11.50;99.90
21267;DHT22;10791;53.108;18.326;2023-03-31T19:56:13;11.50;99.90
21267;DHT22;10791;53.108;18.326;2023-03-31T20:01:24;11.50;99.90
21267;DHT22;10791;53.108;18.326;2023-03-31T20:06:33;11.50;99.90
21267;DHT22;10791;53.108;18.326;2023-03-31T20:11:38;11.50;99.90
21267;DHT22;10791;53.108;18.326;2023-03-31T20:16:49;11.50;99.90
21267;DHT22;10791;53.108;18.326;2023-03-31T20:21:56;11.50;99.90
21267;DHT22;10791;53.108;18.326;2023-03-31T20:27:01;11.40;99.90
21267;DHT22;10791;53.108;18.326;2023-03-31T20:32:06;11.20;99.90
21267;DHT22;10791;53.108;18.326;2023-03-31T20:37:11;11.20;99.90
21267;DHT22;10791;53.108;18.326;2023-03-31T20:42:16;11.10;99.90
21267;DHT22;10791;53.108;18.326;2023-03-31T20:47:23;11.10;99.90
21267;DHT22;10791;53.108;18.326;2023-03-31T20:52:28;11.10;99.90
21267;DHT22;10791;53.108;18.326;2023-03-31T20:57:32;11.10;99.90
21267;DHT22;10791;53.108;18.326;2023-03-31T21:02:36;11.10;99.90
21267;DHT22;10791;53.108;18.326;2023-03-31T21:07:40;11.10;99.90
21267;DHT22;10791;53.108;18.326;2023-03-31T21:12:43;11.10;99.90
21267;DHT22;10791;53.108;18.326;2023-03-31T21:17:48;11.10;99.90
21267;DHT22;10791;53.108;18.326;2023-03-31T21:22:53;10.90;99.90
21267;DHT22;10791;53.108;18.326;2023-03-31T21:27:59;10.90;99.90
21267;DHT22;10791;53.108;18.326;2023-03-31T21:33:03;10.80;99.90
21267;DHT22;10791;53.108;18.326;2023-03-31T21:38:07;10.70;99.90
21267;DHT22;10791;53.108;18.326;2023-03-31T21:43:11;10.70;99.90
21267;DHT22;10791;53.108;18.326;2023-03-31T21:48:14;10.70;99.90
21267;DHT22;10791;53.108;18.326;2023-03-31T21:53:17;10.70;99.90
21267;DHT22;10791;53.108;18.326;2023-03-31T21:58:22;10.70;99.90
21267;DHT22;10791;53.108;18.326;2023-03-31T22:03:27;10.60;99.90
21267;DHT22;10791;53.108;18.326;2023-03-31T22:08:31;10.70;99.90
21267;DHT22;10791;53.108;18.326;2023-03-31T22:13:35;10.60;99.90
21267;DHT22;10791;53.108;18.326;2023-03-31T22:18:38;10.60;99.90
21267;DHT22;10791;53.108;18.326;2023-03-31T22:23:42;10.60;99.90
21267;DHT22;10791;53.108;18.326;2023-03-31T22:28:45;10.60;99.90
21267;DHT22;10791;53.108;18.326;2023-03-31T22:33:48;10.60;99.90
21267;DHT22;10791;53.108;18.326;2023-03-31T22:38:52;10.50;99.90
21267;DHT22;10791;53.108;18.326;2023-03-31T22:43:55;10.50;99.90
21267;DHT22;10791;53.108;18.326;2023-03-31T22:48:58;10.40;99.90
21267;DHT22;10791;53.108;18.326;2023-03-31T22:54:02;10.30;99.90
21267;DHT22;10791;53.108;18.326;2023-03-31T22:59:05;10.30;99.90
21267;DHT22;10791;53.108;18.326;2023-03-31T23:04:09;10.20;99.90
21267;DHT22;10791;53.108;18.326;2023-03-31T23:09:13;10.20;99.90
21267;DHT22;10791;53.108;18.326;2023-03-31T23:14:16;10.30;99.90
21267;DHT22;10791;53.108;18.326;2023-03-31T23:19:19;10.30;99.90
21267;DHT22;10791;53.108;18.326;2023-03-31T23:24:23;10.30;99.90
21267;DHT22;10791;53.108;18.326;2023-03-31T23:29:27;10.30;99.90
21267;DHT22;10791;53.108;18.326;2023-03-31T23:34:32;10.30;99.90
21267;DHT22;10791;53.108;18.326;2023-03-31T23:39:36;10.20;99.90
21267;DHT22;10791;53.108;18.326;2023-03-31T23:44:40;10.20;99.90
21267;DHT22;10791;53.108;18.326;2023-03-31T23:49:43;10.30;99.90
21267;DHT22;10791;53.108;18.326;2023-03-31T23:54:47;10.30;99.90
21267;DHT22;10791;53.108;18.326;2023-03-31T23:59:50;10.30;99.90
